Terminal Aerodrome Forecast
Issued by NWS

Home | Current Version | Previous Version | Text Only | Print | Product List | Glossary On
Versions: 1 2 3 4 5 6 7 8 9 10 11 12 13 14 15 16 17 18 19 20 21 22 23 24
000
FTUS42 KGSP 221139
TAFAND
TAF
KAND 221139Z 2212/2312 10006KT 5SM -SHRA BR OVC003
     FM221500 10005KT 5SM BR OVC008
     FM221700 12007KT 5SM BR OVC015
     FM222100 09010KT 3SM SHRA BR VCTS OVC007CB
     FM230100 13013G20KT 3SM SHRA BR VCTS OVC007CB
     FM230300 23015G22KT 2SM SHRA OVC005
     FM230700 18010KT 1SM -SHRA BR OVC003=

USA.gov is the U.S. government's official web portal to all federal, state and local government web resources and services.